sensor_id;sensor_type;location;lat;lon;timestamp;P1;durP1;ratioP1;P2;durP2;ratioP2
76903;SDS011;65865;51.698;-0.292;2023-05-19T00:00:01;2.63;;;1.00;;
76903;SDS011;65865;51.698;-0.292;2023-05-19T00:02:28;2.13;;;0.77;;
76903;SDS011;65865;51.698;-0.292;2023-05-19T00:04:58;2.35;;;0.68;;
76903;SDS011;65865;51.698;-0.292;2023-05-19T00:07:24;2.60;;;1.13;;
76903;SDS011;65865;51.698;-0.292;2023-05-19T00:09:53;3.15;;;0.70;;
76903;SDS011;65865;51.698;-0.292;2023-05-19T00:12:19;2.22;;;0.80;;
76903;SDS011;65865;51.698;-0.292;2023-05-19T00:14:45;3.03;;;1.20;;
76903;SDS011;65865;51.698;-0.292;2023-05-19T00:17:11;2.83;;;1.30;;
76903;SDS011;65865;51.698;-0.292;2023-05-19T00:19:38;3.60;;;1.23;;
76903;SDS011;65865;51.698;-0.292;2023-05-19T00:22:04;3.25;;;0.93;;
76903;SDS011;65865;51.698;-0.292;2023-05-19T00:24:30;2.47;;;1.10;;
76903;SDS011;65865;51.698;-0.292;2023-05-19T00:26:57;2.10;;;0.77;;
76903;SDS011;65865;51.698;-0.292;2023-05-19T00:29:23;3.03;;;1.20;;
76903;SDS011;65865;51.698;-0.292;2023-05-19T00:31:49;3.35;;;0.93;;
76903;SDS011;65865;51.698;-0.292;2023-05-19T00:34:15;2.42;;;0.90;;
76903;SDS011;65865;51.698;-0.292;2023-05-19T00:36:41;3.83;;;0.95;;
76903;SDS011;65865;51.698;-0.292;2023-05-19T00:39:06;2.17;;;0.90;;
76903;SDS011;65865;51.698;-0.292;2023-05-19T00:41:32;2.80;;;0.93;;
76903;SDS011;65865;51.698;-0.292;2023-05-19T00:43:58;2.60;;;1.10;;
76903;SDS011;65865;51.698;-0.292;2023-05-19T00:46:24;2.03;;;0.88;;
76903;SDS011;65865;51.698;-0.292;2023-05-19T00:48:50;2.83;;;1.15;;
76903;SDS011;65865;51.698;-0.292;2023-05-19T00:51:17;1.42;;;0.63;;
76903;SDS011;65865;51.698;-0.292;2023-05-19T00:53:43;2.85;;;1.20;;
76903;SDS011;65865;51.698;-0.292;2023-05-19T00:56:13;2.25;;;0.80;;
76903;SDS011;65865;51.698;-0.292;2023-05-19T00:58:40;2.25;;;0.82;;
76903;SDS011;65865;51.698;-0.292;2023-05-19T01:01:06;2.92;;;1.00;;
76903;SDS011;65865;51.698;-0.292;2023-05-19T01:03:33;1.88;;;0.80;;
76903;SDS011;65865;51.698;-0.292;2023-05-19T01:05:59;2.17;;;0.50;;
76903;SDS011;65865;51.698;-0.292;2023-05-19T01:08:28;2.05;;;0.82;;
76903;SDS011;65865;51.698;-0.292;2023-05-19T01:10:55;2.28;;;0.60;;
76903;SDS011;65865;51.698;-0.292;2023-05-19T01:13:21;3.95;;;1.20;;
76903;SDS011;65865;51.698;-0.292;2023-05-19T01:21:19;1.88;;;0.50;;
76903;SDS011;65865;51.698;-0.292;2023-05-19T01:24:03;2.03;;;0.70;;
76903;SDS011;65865;51.698;-0.292;2023-05-19T01:31:40;2.72;;;0.80;;
76903;SDS011;65865;51.698;-0.292;2023-05-19T01:34:07;2.83;;;0.80;;
76903;SDS011;65865;51.698;-0.292;2023-05-19T01:36:34;1.65;;;0.80;;
76903;SDS011;65865;51.698;-0.292;2023-05-19T01:39:02;2.38;;;0.68;;
76903;SDS011;65865;51.698;-0.292;2023-05-19T01:41:28;1.95;;;0.70;;
76903;SDS011;65865;51.698;-0.292;2023-05-19T01:43:56;3.30;;;1.25;;
76903;SDS011;65865;51.698;-0.292;2023-05-19T01:46:23;2.55;;;0.85;;
76903;SDS011;65865;51.698;-0.292;2023-05-19T01:48:49;3.95;;;0.82;;
76903;SDS011;65865;51.698;-0.292;2023-05-19T01:51:16;1.45;;;0.63;;
76903;SDS011;65865;51.698;-0.292;2023-05-19T01:53:42;3.20;;;0.77;;
76903;SDS011;65865;51.698;-0.292;2023-05-19T01:56:08;2.85;;;0.77;;
76903;SDS011;65865;51.698;-0.292;2023-05-19T01:58:37;1.65;;;0.65;;
76903;SDS011;65865;51.698;-0.292;2023-05-19T02:01:15;1.73;;;0.52;;
76903;SDS011;65865;51.698;-0.292;2023-05-19T02:04:04;1.02;;;0.50;;
76903;SDS011;65865;51.698;-0.292;2023-05-19T02:11:31;2.35;;;0.75;;
76903;SDS011;65865;51.698;-0.292;2023-05-19T02:13:59;2.67;;;0.73;;
76903;SDS011;65865;51.698;-0.292;2023-05-19T02:16:26;2.20;;;1.05;;
76903;SDS011;65865;51.698;-0.292;2023-05-19T02:18:53;2.53;;;1.20;;
76903;SDS011;65865;51.698;-0.292;2023-05-19T02:21:20;3.42;;;0.80;;
76903;SDS011;65865;51.698;-0.292;2023-05-19T02:23:46;1.33;;;0.50;;
76903;SDS011;65865;51.698;-0.292;2023-05-19T02:26:12;2.38;;;0.55;;
76903;SDS011;65865;51.698;-0.292;2023-05-19T02:28:38;2.25;;;0.77;;
76903;SDS011;65865;51.698;-0.292;2023-05-19T02:31:04;2.25;;;0.90;;
76903;SDS011;65865;51.698;-0.292;2023-05-19T02:33:33;2.00;;;0.93;;
76903;SDS011;65865;51.698;-0.292;2023-05-19T02:35:59;2.05;;;0.70;;
76903;SDS011;65865;51.698;-0.292;2023-05-19T02:38:25;1.83;;;0.70;;
76903;SDS011;65865;51.698;-0.292;2023-05-19T02:40:51;2.10;;;0.68;;
76903;SDS011;65865;51.698;-0.292;2023-05-19T02:43:17;1.88;;;0.60;;
76903;SDS011;65865;51.698;-0.292;2023-05-19T02:45:43;4.18;;;0.70;;
76903;SDS011;65865;51.698;-0.292;2023-05-19T02:48:09;1.60;;;0.70;;
76903;SDS011;65865;51.698;-0.292;2023-05-19T02:50:35;1.60;;;0.80;;
76903;SDS011;65865;51.698;-0.292;2023-05-19T02:53:02;2.45;;;0.90;;
76903;SDS011;65865;51.698;-0.292;2023-05-19T02:55:28;3.22;;;0.68;;
76903;SDS011;65865;51.698;-0.292;2023-05-19T02:57:54;2.30;;;0.70;;
76903;SDS011;65865;51.698;-0.292;2023-05-19T03:00:20;2.67;;;0.70;;
76903;SDS011;65865;51.698;-0.292;2023-05-19T03:02:46;2.20;;;0.60;;
76903;SDS011;65865;51.698;-0.292;2023-05-19T03:05:13;1.88;;;0.85;;
76903;SDS011;65865;51.698;-0.292;2023-05-19T03:07:39;2.78;;;0.70;;
76903;SDS011;65865;51.698;-0.292;2023-05-19T03:10:05;1.85;;;0.70;;
76903;SDS011;65865;51.698;-0.292;2023-05-19T03:12:32;2.42;;;0.70;;
76903;SDS011;65865;51.698;-0.292;2023-05-19T03:14:58;2.28;;;0.80;;
76903;SDS011;65865;51.698;-0.292;2023-05-19T03:17:24;1.45;;;0.57;;
76903;SDS011;65865;51.698;-0.292;2023-05-19T03:19:51;2.75;;;0.80;;
76903;SDS011;65865;51.698;-0.292;2023-05-19T03:22:17;2.10;;;0.75;;
76903;SDS011;65865;51.698;-0.292;2023-05-19T03:24:44;3.20;;;0.70;;
76903;SDS011;65865;51.698;-0.292;2023-05-19T03:27:11;2.67;;;0.88;;
76903;SDS011;65865;51.698;-0.292;2023-05-19T03:29:37;2.40;;;0.80;;
76903;SDS011;65865;51.698;-0.292;2023-05-19T03:32:03;2.78;;;0.88;;
76903;SDS011;65865;51.698;-0.292;2023-05-19T03:34:29;3.78;;;0.80;;
76903;SDS011;65865;51.698;-0.292;2023-05-19T03:36:56;2.85;;;0.70;;
76903;SDS011;65865;51.698;-0.292;2023-05-19T03:39:22;2.10;;;0.82;;
76903;SDS011;65865;51.698;-0.292;2023-05-19T03:41:48;2.60;;;0.90;;
76903;SDS011;65865;51.698;-0.292;2023-05-19T03:44:14;1.75;;;0.68;;
76903;SDS011;65865;51.698;-0.292;2023-05-19T03:46:40;1.60;;;0.60;;
76903;SDS011;65865;51.698;-0.292;2023-05-19T03:49:06;2.78;;;0.93;;
76903;SDS011;65865;51.698;-0.292;2023-05-19T03:51:32;1.67;;;0.60;;
76903;SDS011;65865;51.698;-0.292;2023-05-19T03:56:27;2.53;;;0.70;;
76903;SDS011;65865;51.698;-0.292;2023-05-19T03:58:53;2.88;;;0.70;;
76903;SDS011;65865;51.698;-0.292;2023-05-19T04:01:19;2.22;;;1.17;;
76903;SDS011;65865;51.698;-0.292;2023-05-19T04:03:45;3.40;;;0.93;;
76903;SDS011;65865;51.698;-0.292;2023-05-19T04:06:11;3.65;;;1.00;;
76903;SDS011;65865;51.698;-0.292;2023-05-19T04:08:38;2.03;;;0.52;;
76903;SDS011;65865;51.698;-0.292;2023-05-19T04:11:04;2.45;;;0.90;;
76903;SDS011;65865;51.698;-0.292;2023-05-19T04:13:33;2.28;;;0.73;;
76903;SDS011;65865;51.698;-0.292;2023-05-19T04:15:59;2.33;;;0.90;;
76903;SDS011;65865;51.698;-0.292;2023-05-19T04:18:25;3.05;;;0.93;;
76903;SDS011;65865;51.698;-0.292;2023-05-19T04:20:51;1.90;;;0.95;;
76903;SDS011;65865;51.698;-0.292;2023-05-19T04:23:17;3.30;;;0.98;;
76903;SDS011;65865;51.698;-0.292;2023-05-19T04:25:43;3.17;;;0.98;;
76903;SDS011;65865;51.698;-0.292;2023-05-19T04:28:12;4.03;;;1.08;;
76903;SDS011;65865;51.698;-0.292;2023-05-19T04:30:38;2.25;;;0.60;;
76903;SDS011;65865;51.698;-0.292;2023-05-19T04:33:06;3.35;;;1.00;;
76903;SDS011;65865;51.698;-0.292;2023-05-19T04:35:33;2.25;;;1.05;;
76903;SDS011;65865;51.698;-0.292;2023-05-19T04:37:59;3.03;;;1.02;;
76903;SDS011;65865;51.698;-0.292;2023-05-19T04:40:25;2.22;;;0.80;;
76903;SDS011;65865;51.698;-0.292;2023-05-19T04:42:51;2.05;;;0.70;;
76903;SDS011;65865;51.698;-0.292;2023-05-19T04:45:18;1.65;;;0.70;;
76903;SDS011;65865;51.698;-0.292;2023-05-19T04:47:44;2.25;;;0.88;;
76903;SDS011;65865;51.698;-0.292;2023-05-19T04:50:13;2.55;;;1.10;;
76903;SDS011;65865;51.698;-0.292;2023-05-19T04:52:40;2.72;;;1.00;;
76903;SDS011;65865;51.698;-0.292;2023-05-19T04:55:06;2.08;;;0.80;;
76903;SDS011;65865;51.698;-0.292;2023-05-19T04:57:35;2.92;;;0.80;;
76903;SDS011;65865;51.698;-0.292;2023-05-19T05:00:01;2.40;;;0.85;;
76903;SDS011;65865;51.698;-0.292;2023-05-19T05:02:31;2.83;;;0.70;;
76903;SDS011;65865;51.698;-0.292;2023-05-19T05:04:57;3.40;;;0.98;;
76903;SDS011;65865;51.698;-0.292;2023-05-19T05:07:23;1.90;;;0.90;;
76903;SDS011;65865;51.698;-0.292;2023-05-19T05:09:49;3.83;;;0.98;;
76903;SDS011;65865;51.698;-0.292;2023-05-19T05:12:19;2.22;;;0.93;;
76903;SDS011;65865;51.698;-0.292;2023-05-19T05:14:46;2.72;;;0.82;;
76903;SDS011;65865;51.698;-0.292;2023-05-19T05:17:12;2.20;;;0.63;;
76903;SDS011;65865;51.698;-0.292;2023-05-19T05:19:38;2.53;;;0.93;;
76903;SDS011;65865;51.698;-0.292;2023-05-19T05:22:05;2.20;;;1.15;;
76903;SDS011;65865;51.698;-0.292;2023-05-19T05:24:31;1.40;;;0.77;;
76903;SDS011;65865;51.698;-0.292;2023-05-19T05:26:57;2.60;;;1.15;;
76903;SDS011;65865;51.698;-0.292;2023-05-19T05:29:23;1.80;;;0.60;;
76903;SDS011;65865;51.698;-0.292;2023-05-19T05:31:49;1.85;;;0.80;;
76903;SDS011;65865;51.698;-0.292;2023-05-19T05:34:15;3.95;;;0.80;;
76903;SDS011;65865;51.698;-0.292;2023-05-19T05:36:42;2.63;;;0.75;;
76903;SDS011;65865;51.698;-0.292;2023-05-19T05:39:07;2.53;;;0.70;;
76903;SDS011;65865;51.698;-0.292;2023-05-19T05:41:33;1.67;;;0.77;;
76903;SDS011;65865;51.698;-0.292;2023-05-19T05:44:00;2.92;;;0.88;;
76903;SDS011;65865;51.698;-0.292;2023-05-19T05:46:26;2.10;;;0.90;;
76903;SDS011;65865;51.698;-0.292;2023-05-19T05:48:52;2.17;;;0.80;;
76903;SDS011;65865;51.698;-0.292;2023-05-19T05:51:23;2.00;;;0.80;;
76903;SDS011;65865;51.698;-0.292;2023-05-19T05:53:50;2.30;;;0.88;;
76903;SDS011;65865;51.698;-0.292;2023-05-19T05:56:17;2.50;;;0.90;;
76903;SDS011;65865;51.698;-0.292;2023-05-19T05:58:43;2.60;;;1.08;;
76903;SDS011;65865;51.698;-0.292;2023-05-19T06:01:09;2.50;;;0.70;;
76903;SDS011;65865;51.698;-0.292;2023-05-19T06:03:37;2.05;;;0.70;;
76903;SDS011;65865;51.698;-0.292;2023-05-19T06:06:03;4.00;;;0.90;;
76903;SDS011;65865;51.698;-0.292;2023-05-19T06:08:29;1.70;;;0.80;;
76903;SDS011;65865;51.698;-0.292;2023-05-19T06:10:56;2.92;;;0.70;;
76903;SDS011;65865;51.698;-0.292;2023-05-19T06:13:23;2.30;;;0.68;;
76903;SDS011;65865;51.698;-0.292;2023-05-19T06:15:50;3.53;;;0.65;;
76903;SDS011;65865;51.698;-0.292;2023-05-19T06:18:16;2.97;;;0.90;;
76903;SDS011;65865;51.698;-0.292;2023-05-19T06:20:42;2.80;;;0.88;;
76903;SDS011;65865;51.698;-0.292;2023-05-19T06:23:08;2.13;;;0.70;;
76903;SDS011;65865;51.698;-0.292;2023-05-19T06:25:34;2.88;;;1.00;;
76903;SDS011;65865;51.698;-0.292;2023-05-19T06:28:00;1.88;;;1.02;;
76903;SDS011;65865;51.698;-0.292;2023-05-19T06:30:27;1.70;;;0.68;;
76903;SDS011;65865;51.698;-0.292;2023-05-19T06:32:53;3.33;;;1.00;;
76903;SDS011;65865;51.698;-0.292;2023-05-19T06:35:19;2.00;;;1.35;;
76903;SDS011;65865;51.698;-0.292;2023-05-19T06:37:45;1.70;;;0.70;;
76903;SDS011;65865;51.698;-0.292;2023-05-19T06:40:11;2.70;;;0.80;;
76903;SDS011;65865;51.698;-0.292;2023-05-19T06:42:37;1.75;;;0.80;;
76903;SDS011;65865;51.698;-0.292;2023-05-19T06:45:03;3.67;;;0.70;;
76903;SDS011;65865;51.698;-0.292;2023-05-19T06:47:29;1.73;;;0.75;;
76903;SDS011;65865;51.698;-0.292;2023-05-19T06:49:55;2.28;;;0.70;;
76903;SDS011;65865;51.698;-0.292;2023-05-19T06:52:22;2.05;;;0.80;;
76903;SDS011;65865;51.698;-0.292;2023-05-19T06:54:48;2.05;;;0.60;;
76903;SDS011;65865;51.698;-0.292;2023-05-19T06:57:15;1.75;;;0.70;;
76903;SDS011;65865;51.698;-0.292;2023-05-19T06:59:41;1.83;;;0.73;;
76903;SDS011;65865;51.698;-0.292;2023-05-19T07:02:10;1.60;;;0.60;;
76903;SDS011;65865;51.698;-0.292;2023-05-19T07:04:36;2.00;;;0.98;;
76903;SDS011;65865;51.698;-0.292;2023-05-19T07:07:03;1.95;;;0.70;;
76903;SDS011;65865;51.698;-0.292;2023-05-19T07:09:29;1.67;;;0.50;;
76903;SDS011;65865;51.698;-0.292;2023-05-19T07:11:55;1.77;;;0.88;;
76903;SDS011;65865;51.698;-0.292;2023-05-19T07:14:21;1.90;;;0.52;;
76903;SDS011;65865;51.698;-0.292;2023-05-19T07:16:48;1.40;;;0.60;;
76903;SDS011;65865;51.698;-0.292;2023-05-19T07:19:14;1.42;;;0.50;;
76903;SDS011;65865;51.698;-0.292;2023-05-19T07:21:40;2.08;;;0.70;;
76903;SDS011;65865;51.698;-0.292;2023-05-19T07:24:06;2.30;;;0.60;;
76903;SDS011;65865;51.698;-0.292;2023-05-19T07:26:32;2.13;;;0.60;;
76903;SDS011;65865;51.698;-0.292;2023-05-19T07:28:58;1.95;;;0.60;;
76903;SDS011;65865;51.698;-0.292;2023-05-19T07:31:24;2.13;;;0.70;;
76903;SDS011;65865;51.698;-0.292;2023-05-19T07:33:50;1.88;;;0.60;;
76903;SDS011;65865;51.698;-0.292;2023-05-19T07:36:16;1.92;;;0.60;;
76903;SDS011;65865;51.698;-0.292;2023-05-19T07:38:42;2.22;;;0.60;;
76903;SDS011;65865;51.698;-0.292;2023-05-19T07:41:08;1.95;;;0.70;;
76903;SDS011;65865;51.698;-0.292;2023-05-19T07:43:34;2.67;;;0.95;;
76903;SDS011;65865;51.698;-0.292;2023-05-19T07:46:00;1.50;;;0.60;;
76903;SDS011;65865;51.698;-0.292;2023-05-19T07:48:26;2.13;;;0.50;;
76903;SDS011;65865;51.698;-0.292;2023-05-19T07:50:53;2.30;;;0.63;;
76903;SDS011;65865;51.698;-0.292;2023-05-19T07:53:20;1.67;;;0.43;;
76903;SDS011;65865;51.698;-0.292;2023-05-19T07:55:46;2.60;;;0.70;;
76903;SDS011;65865;51.698;-0.292;2023-05-19T07:58:13;2.72;;;0.80;;
76903;SDS011;65865;51.698;-0.292;2023-05-19T08:00:39;2.13;;;0.60;;
76903;SDS011;65865;51.698;-0.292;2023-05-19T08:03:09;2.42;;;0.70;;
76903;SDS011;65865;51.698;-0.292;2023-05-19T08:05:36;2.25;;;0.60;;
76903;SDS011;65865;51.698;-0.292;2023-05-19T08:08:02;4.82;;;1.13;;
76903;SDS011;65865;51.698;-0.292;2023-05-19T08:10:28;3.75;;;1.08;;
76903;SDS011;65865;51.698;-0.292;2023-05-19T08:12:55;4.47;;;1.63;;
76903;SDS011;65865;51.698;-0.292;2023-05-19T08:15:21;3.80;;;0.90;;
76903;SDS011;65865;51.698;-0.292;2023-05-19T08:17:47;3.78;;;1.42;;
76903;SDS011;65865;51.698;-0.292;2023-05-19T08:20:13;4.18;;;1.50;;
76903;SDS011;65865;51.698;-0.292;2023-05-19T08:22:39;3.88;;;1.50;;
76903;SDS011;65865;51.698;-0.292;2023-05-19T08:25:05;3.90;;;1.20;;
76903;SDS011;65865;51.698;-0.292;2023-05-19T08:27:32;4.80;;;1.25;;
76903;SDS011;65865;51.698;-0.292;2023-05-19T08:29:58;4.38;;;1.50;;
76903;SDS011;65865;51.698;-0.292;2023-05-19T08:32:24;5.88;;;1.67;;
76903;SDS011;65865;51.698;-0.292;2023-05-19T08:34:50;3.70;;;1.33;;
76903;SDS011;65865;51.698;-0.292;2023-05-19T08:37:16;4.50;;;1.33;;
76903;SDS011;65865;51.698;-0.292;2023-05-19T08:39:42;4.30;;;1.42;;
76903;SDS011;65865;51.698;-0.292;2023-05-19T08:42:08;4.28;;;1.20;;
76903;SDS011;65865;51.698;-0.292;2023-05-19T08:44:36;2.65;;;0.93;;
76903;SDS011;65865;51.698;-0.292;2023-05-19T08:47:03;3.67;;;1.40;;
76903;SDS011;65865;51.698;-0.292;2023-05-19T08:49:32;2.53;;;1.13;;
76903;SDS011;65865;51.698;-0.292;2023-05-19T08:52:21;3.67;;;1.20;;
76903;SDS011;65865;51.698;-0.292;2023-05-19T08:54:54;5.00;;;1.30;;
76903;SDS011;65865;51.698;-0.292;2023-05-19T08:57:24;3.55;;;1.27;;
76903;SDS011;65865;51.698;-0.292;2023-05-19T08:59:50;3.33;;;1.00;;
76903;SDS011;65865;51.698;-0.292;2023-05-19T09:02:16;2.72;;;1.20;;
76903;SDS011;65865;51.698;-0.292;2023-05-19T09:04:43;4.38;;;1.20;;
76903;SDS011;65865;51.698;-0.292;2023-05-19T09:07:12;4.50;;;1.58;;
76903;SDS011;65865;51.698;-0.292;2023-05-19T09:09:39;3.05;;;1.15;;
76903;SDS011;65865;51.698;-0.292;2023-05-19T09:12:07;3.97;;;1.33;;
76903;SDS011;65865;51.698;-0.292;2023-05-19T09:14:34;4.63;;;1.27;;
76903;SDS011;65865;51.698;-0.292;2023-05-19T09:17:00;3.35;;;1.13;;
76903;SDS011;65865;51.698;-0.292;2023-05-19T09:19:29;4.47;;;1.58;;
76903;SDS011;65865;51.698;-0.292;2023-05-19T09:21:58;3.15;;;1.40;;
76903;SDS011;65865;51.698;-0.292;2023-05-19T09:24:25;5.57;;;1.20;;
76903;SDS011;65865;51.698;-0.292;2023-05-19T09:26:52;3.50;;;1.00;;
76903;SDS011;65865;51.698;-0.292;2023-05-19T09:29:19;3.70;;;1.00;;
76903;SDS011;65865;51.698;-0.292;2023-05-19T09:34:14;2.28;;;1.00;;
76903;SDS011;65865;51.698;-0.292;2023-05-19T09:36:40;4.75;;;1.15;;
76903;SDS011;65865;51.698;-0.292;2023-05-19T09:39:13;4.90;;;1.55;;
76903;SDS011;65865;51.698;-0.292;2023-05-19T09:41:40;3.08;;;1.17;;
76903;SDS011;65865;51.698;-0.292;2023-05-19T09:44:06;2.53;;;1.17;;
76903;SDS011;65865;51.698;-0.292;2023-05-19T09:46:32;4.13;;;1.40;;
76903;SDS011;65865;51.698;-0.292;2023-05-19T09:49:06;4.90;;;1.52;;
76903;SDS011;65865;51.698;-0.292;2023-05-19T09:51:36;4.28;;;0.98;;
76903;SDS011;65865;51.698;-0.292;2023-05-19T09:54:02;5.55;;;1.45;;
76903;SDS011;65865;51.698;-0.292;2023-05-19T09:56:34;9.00;;;1.45;;
76903;SDS011;65865;51.698;-0.292;2023-05-19T09:59:01;4.70;;;1.65;;
76903;SDS011;65865;51.698;-0.292;2023-05-19T10:01:29;3.80;;;1.35;;
76903;SDS011;65865;51.698;-0.292;2023-05-19T10:03:57;4.13;;;1.08;;
76903;SDS011;65865;51.698;-0.292;2023-05-19T10:06:25;5.32;;;1.70;;
76903;SDS011;65865;51.698;-0.292;2023-05-19T10:08:51;6.47;;;1.80;;
76903;SDS011;65865;51.698;-0.292;2023-05-19T10:11:18;5.47;;;2.03;;
76903;SDS011;65865;51.698;-0.292;2023-05-19T10:13:45;6.07;;;1.58;;
76903;SDS011;65865;51.698;-0.292;2023-05-19T10:16:11;3.83;;;1.52;;
76903;SDS011;65865;51.698;-0.292;2023-05-19T10:18:40;4.70;;;1.55;;
76903;SDS011;65865;51.698;-0.292;2023-05-19T10:21:06;3.70;;;1.48;;
76903;SDS011;65865;51.698;-0.292;2023-05-19T10:23:33;5.28;;;1.45;;
76903;SDS011;65865;51.698;-0.292;2023-05-19T10:26:00;7.28;;;1.92;;
76903;SDS011;65865;51.698;-0.292;2023-05-19T10:28:34;8.68;;;1.98;;
76903;SDS011;65865;51.698;-0.292;2023-05-19T10:31:00;7.07;;;2.25;;
76903;SDS011;65865;51.698;-0.292;2023-05-19T10:39:21;5.93;;;1.63;;
76903;SDS011;65865;51.698;-0.292;2023-05-19T10:46:58;6.60;;;1.83;;
76903;SDS011;65865;51.698;-0.292;2023-05-19T10:49:24;7.35;;;1.98;;
76903;SDS011;65865;51.698;-0.292;2023-05-19T10:51:51;7.00;;;2.08;;
76903;SDS011;65865;51.698;-0.292;2023-05-19T10:54:39;6.80;;;1.90;;
76903;SDS011;65865;51.698;-0.292;2023-05-19T10:57:07;5.97;;;1.98;;
76903;SDS011;65865;51.698;-0.292;2023-05-19T10:59:35;5.68;;;2.00;;
76903;SDS011;65865;51.698;-0.292;2023-05-19T11:02:05;7.43;;;2.42;;
76903;SDS011;65865;51.698;-0.292;2023-05-19T11:05:05;5.68;;;2.45;;
76903;SDS011;65865;51.698;-0.292;2023-05-19T11:09:50;4.93;;;1.80;;
76903;SDS011;65865;51.698;-0.292;2023-05-19T11:12:19;5.40;;;1.95;;
76903;SDS011;65865;51.698;-0.292;2023-05-19T11:14:46;10.07;;;2.42;;
76903;SDS011;65865;51.698;-0.292;2023-05-19T11:17:16;6.90;;;2.20;;
76903;SDS011;65865;51.698;-0.292;2023-05-19T11:19:51;5.75;;;1.98;;
76903;SDS011;65865;51.698;-0.292;2023-05-19T11:22:21;7.22;;;2.28;;
76903;SDS011;65865;51.698;-0.292;2023-05-19T11:24:47;6.75;;;2.50;;
76903;SDS011;65865;51.698;-0.292;2023-05-19T11:27:24;6.22;;;2.88;;
76903;SDS011;65865;51.698;-0.292;2023-05-19T11:29:51;6.57;;;3.08;;
76903;SDS011;65865;51.698;-0.292;2023-05-19T11:32:21;6.07;;;2.85;;
76903;SDS011;65865;51.698;-0.292;2023-05-19T11:34:48;10.68;;;3.10;;
76903;SDS011;65865;51.698;-0.292;2023-05-19T11:37:14;8.70;;;3.22;;
76903;SDS011;65865;51.698;-0.292;2023-05-19T11:39:40;6.28;;;2.83;;
76903;SDS011;65865;51.698;-0.292;2023-05-19T11:42:07;8.10;;;3.50;;
76903;SDS011;65865;51.698;-0.292;2023-05-19T11:44:37;8.85;;;3.33;;
76903;SDS011;65865;51.698;-0.292;2023-05-19T11:49:30;8.80;;;2.90;;
76903;SDS011;65865;51.698;-0.292;2023-05-19T11:51:58;7.90;;;3.65;;
76903;SDS011;65865;51.698;-0.292;2023-05-19T11:54:29;5.40;;;2.90;;
76903;SDS011;65865;51.698;-0.292;2023-05-19T11:56:56;6.35;;;3.22;;
76903;SDS011;65865;51.698;-0.292;2023-05-19T11:59:28;7.38;;;3.05;;
76903;SDS011;65865;51.698;-0.292;2023-05-19T12:01:55;5.88;;;3.20;;
76903;SDS011;65865;51.698;-0.292;2023-05-19T12:04:21;7.47;;;4.28;;
76903;SDS011;65865;51.698;-0.292;2023-05-19T12:06:47;8.75;;;5.20;;
76903;SDS011;65865;51.698;-0.292;2023-05-19T12:09:13;5.90;;;3.50;;
76903;SDS011;65865;51.698;-0.292;2023-05-19T12:11:39;4.85;;;2.47;;
76903;SDS011;65865;51.698;-0.292;2023-05-19T12:14:05;8.02;;;2.70;;
76903;SDS011;65865;51.698;-0.292;2023-05-19T12:16:35;7.13;;;2.17;;
76903;SDS011;65865;51.698;-0.292;2023-05-19T12:19:03;6.10;;;2.95;;
76903;SDS011;65865;51.698;-0.292;2023-05-19T12:21:30;7.55;;;2.75;;
76903;SDS011;65865;51.698;-0.292;2023-05-19T12:23:57;8.90;;;3.00;;
76903;SDS011;65865;51.698;-0.292;2023-05-19T12:26:23;6.05;;;2.97;;
76903;SDS011;65865;51.698;-0.292;2023-05-19T12:28:49;5.38;;;2.42;;
76903;SDS011;65865;51.698;-0.292;2023-05-19T12:31:16;6.22;;;3.05;;
76903;SDS011;65865;51.698;-0.292;2023-05-19T12:33:42;6.45;;;2.65;;
76903;SDS011;65865;51.698;-0.292;2023-05-19T12:36:08;7.35;;;2.67;;
76903;SDS011;65865;51.698;-0.292;2023-05-19T12:38:36;6.18;;;2.70;;
76903;SDS011;65865;51.698;-0.292;2023-05-19T12:41:03;6.10;;;2.80;;
76903;SDS011;65865;51.698;-0.292;2023-05-19T12:43:31;6.57;;;2.88;;
76903;SDS011;65865;51.698;-0.292;2023-05-19T12:45:57;4.15;;;2.25;;
76903;SDS011;65865;51.698;-0.292;2023-05-19T12:48:23;4.88;;;2.35;;
76903;SDS011;65865;51.698;-0.292;2023-05-19T12:50:52;5.70;;;2.55;;
76903;SDS011;65865;51.698;-0.292;2023-05-19T12:53:19;4.90;;;2.20;;
76903;SDS011;65865;51.698;-0.292;2023-05-19T12:55:45;5.43;;;2.40;;
76903;SDS011;65865;51.698;-0.292;2023-05-19T12:58:11;6.82;;;2.50;;
76903;SDS011;65865;51.698;-0.292;2023-05-19T13:00:41;5.60;;;2.08;;
76903;SDS011;65865;51.698;-0.292;2023-05-19T13:03:13;4.10;;;2.17;;
76903;SDS011;65865;51.698;-0.292;2023-05-19T13:05:40;5.60;;;2.58;;
76903;SDS011;65865;51.698;-0.292;2023-05-19T13:08:08;4.60;;;2.45;;
76903;SDS011;65865;51.698;-0.292;2023-05-19T13:10:35;4.40;;;2.33;;
76903;SDS011;65865;51.698;-0.292;2023-05-19T13:13:01;4.25;;;2.10;;
76903;SDS011;65865;51.698;-0.292;2023-05-19T13:15:28;4.78;;;2.20;;
76903;SDS011;65865;51.698;-0.292;2023-05-19T13:18:02;5.50;;;2.35;;
76903;SDS011;65865;51.698;-0.292;2023-05-19T13:20:28;4.68;;;2.10;;
76903;SDS011;65865;51.698;-0.292;2023-05-19T13:22:54;4.18;;;2.00;;
76903;SDS011;65865;51.698;-0.292;2023-05-19T13:25:21;5.03;;;1.90;;
76903;SDS011;65865;51.698;-0.292;2023-05-19T13:27:47;4.65;;;2.00;;
76903;SDS011;65865;51.698;-0.292;2023-05-19T13:30:13;4.50;;;2.00;;
76903;SDS011;65865;51.698;-0.292;2023-05-19T13:32:40;4.13;;;1.83;;
76903;SDS011;65865;51.698;-0.292;2023-05-19T13:35:06;3.35;;;1.65;;
76903;SDS011;65865;51.698;-0.292;2023-05-19T13:37:32;4.65;;;2.10;;
76903;SDS011;65865;51.698;-0.292;2023-05-19T13:39:58;4.38;;;1.67;;
76903;SDS011;65865;51.698;-0.292;2023-05-19T13:42:24;4.95;;;1.83;;
76903;SDS011;65865;51.698;-0.292;2023-05-19T13:44:54;3.65;;;1.73;;
76903;SDS011;65865;51.698;-0.292;2023-05-19T13:47:20;4.30;;;1.73;;
76903;SDS011;65865;51.698;-0.292;2023-05-19T13:49:46;3.67;;;1.75;;
76903;SDS011;65865;51.698;-0.292;2023-05-19T13:52:12;3.88;;;1.73;;
76903;SDS011;65865;51.698;-0.292;2023-05-19T13:54:39;4.28;;;1.58;;
76903;SDS011;65865;51.698;-0.292;2023-05-19T13:57:05;3.70;;;1.77;;
76903;SDS011;65865;51.698;-0.292;2023-05-19T13:59:31;3.35;;;1.50;;
76903;SDS011;65865;51.698;-0.292;2023-05-19T14:01:58;3.25;;;1.65;;
76903;SDS011;65865;51.698;-0.292;2023-05-19T14:04:24;5.65;;;1.75;;
76903;SDS011;65865;51.698;-0.292;2023-05-19T14:06:50;4.20;;;1.60;;
76903;SDS011;65865;51.698;-0.292;2023-05-19T14:09:16;3.55;;;1.50;;
76903;SDS011;65865;51.698;-0.292;2023-05-19T14:11:42;3.00;;;1.48;;
76903;SDS011;65865;51.698;-0.292;2023-05-19T14:14:08;4.20;;;1.67;;
76903;SDS011;65865;51.698;-0.292;2023-05-19T14:16:35;3.67;;;1.42;;
76903;SDS011;65865;51.698;-0.292;2023-05-19T14:19:01;3.83;;;2.03;;
76903;SDS011;65865;51.698;-0.292;2023-05-19T14:21:27;3.80;;;1.70;;
76903;SDS011;65865;51.698;-0.292;2023-05-19T14:23:54;3.55;;;1.67;;
76903;SDS011;65865;51.698;-0.292;2023-05-19T14:26:20;4.22;;;1.88;;
76903;SDS011;65865;51.698;-0.292;2023-05-19T14:28:45;3.08;;;1.35;;
76903;SDS011;65865;51.698;-0.292;2023-05-19T14:31:12;3.70;;;1.65;;
76903;SDS011;65865;51.698;-0.292;2023-05-19T14:33:38;4.00;;;1.40;;
76903;SDS011;65865;51.698;-0.292;2023-05-19T14:36:04;4.47;;;1.67;;
76903;SDS011;65865;51.698;-0.292;2023-05-19T14:38:30;3.30;;;1.38;;
76903;SDS011;65865;51.698;-0.292;2023-05-19T14:40:56;3.13;;;1.63;;
76903;SDS011;65865;51.698;-0.292;2023-05-19T14:43:22;3.78;;;1.63;;
76903;SDS011;65865;51.698;-0.292;2023-05-19T14:45:48;3.35;;;1.50;;
76903;SDS011;65865;51.698;-0.292;2023-05-19T14:48:14;4.97;;;1.60;;
76903;SDS011;65865;51.698;-0.292;2023-05-19T14:50:40;4.05;;;1.50;;
76903;SDS011;65865;51.698;-0.292;2023-05-19T14:53:06;3.60;;;1.40;;
76903;SDS011;65865;51.698;-0.292;2023-05-19T14:55:32;4.07;;;1.63;;
76903;SDS011;65865;51.698;-0.292;2023-05-19T14:57:58;3.67;;;1.52;;
76903;SDS011;65865;51.698;-0.292;2023-05-19T15:00:24;3.83;;;1.60;;
76903;SDS011;65865;51.698;-0.292;2023-05-19T15:02:51;3.67;;;1.90;;
76903;SDS011;65865;51.698;-0.292;2023-05-19T15:05:18;4.43;;;1.67;;
76903;SDS011;65865;51.698;-0.292;2023-05-19T15:07:44;4.32;;;1.50;;